Time;durP1;ratioP1;P1;durP2;ratioP2;P2;SDS_P1;SDS_P2;PMS_P1;PMS_P2;Temp;Humidity;BMP_temperature;BMP_pressure;BME280_temperature;BME280_humidity;BME280_pressure;Samples;Min_cycle;Max_cycle;Signal;HPM_P1;HPM_P2
2022/06/29 00:00:54;;;;;;;7.13;3.60;;;;;;;21.83;100.00;100799.20;740197;1154;115296;-72
2022/06/29 00:15:56;;;;;;;4.67;3.73;;;;;;;21.68;100.00;100808.15;740041;1155;114411;-72
2022/06/29 00:30:59;;;;;;;5.60;3.85;;;;;;;21.58;100.00;100794.35;739976;1153;114882;-72
2022/06/29 00:46:01;;;;;;;4.28;3.75;;;;;;;21.64;100.00;100788.21;740044;1155;115524;-73
2022/06/29 01:01:04;;;;;;;6.30;3.30;;;;;;;21.60;100.00;100773.61;740024;1155;114595;-73
2022/06/29 01:16:07;;;;;;;4.70;3.50;;;;;;;21.38;100.00;100770.99;740300;1153;115295;-73
2022/06/29 01:31:16;;;;;;;7.33;3.00;;;;;;;21.38;100.00;100733.64;739907;1153;115352;-72
2022/06/29 01:46:19;;;;;;;5.50;3.05;;;;;;;21.36;100.00;100708.98;740592;1155;115909;-73
2022/06/29 02:01:22;;;;;;;5.93;2.47;;;;;;;21.31;100.00;100711.41;740308;1155;115392;-72
2022/06/29 02:16:25;;;;;;;8.15;3.88;;;;;;;21.27;100.00;100708.33;740781;1153;114443;-74
2022/06/29 02:46:48;;;;;;;9.08;3.75;;;;;;;21.21;100.00;100698.43;740297;1155;115863;-73
2022/06/29 03:01:50;;;;;;;5.73;3.47;;;;;;;21.25;100.00;100699.69;740158;1155;115322;-73
2022/06/29 03:16:53;;;;;;;4.93;3.20;;;;;;;21.31;100.00;100716.74;740297;1153;114424;-73
2022/06/29 03:31:55;;;;;;;5.58;3.13;;;;;;;21.40;100.00;100714.75;740025;1155;115302;-73
2022/06/29 03:46:58;;;;;;;4.83;3.43;;;;;;;21.44;99.94;100689.32;740207;1155;115244;-86
2022/06/29 04:02:01;;;;;;;6.13;3.15;;;;;;;21.61;99.84;100677.31;742830;1155;114319;-82
2022/06/29 04:17:03;;;;;;;4.90;3.27;;;;;;;21.68;99.30;100665.85;744024;1153;114462;-82
2022/06/29 04:32:06;;;;;;;7.35;3.55;;;;;;;21.96;98.25;100681.78;743550;1153;115860;-82
2022/06/29 04:47:15;;;;;;;3.93;2.80;;;;;;;22.23;97.50;100684.51;743127;1153;115761;-90
2022/06/29 05:02:17;;;;;;;4.45;3.05;;;;;;;22.55;97.02;100658.86;743348;1155;115135;-89
2022/06/29 05:17:20;;;;;;;7.48;3.25;;;;;;;22.87;96.01;100650.20;742379;1154;115942;-81
2022/06/29 05:32:22;;;;;;;6.20;2.98;;;;;;;23.28;94.55;100648.30;742084;1154;114600;-90
2022/06/29 05:47:25;;;;;;;5.30;3.20;;;;;;;22.97;94.08;100663.98;742398;1155;114874;-87
2022/06/29 06:02:27;;;;;;;5.90;3.20;;;;;;;23.37;94.14;100671.97;742842;1155;114502;-89
2022/06/29 06:17:29;;;;;;;4.05;3.35;;;;;;;23.04;93.21;100691.56;742263;1153;114454;-82
2022/06/29 06:32:36;;;;;;;6.95;4.25;;;;;;;22.63;94.42;100707.82;744088;1153;114220;-83
2022/06/29 06:47:38;;;;;;;5.23;4.33;;;;;;;22.40;96.19;100709.03;742692;1155;114301;-82
2022/06/29 07:02:41;;;;;;;13.55;5.35;;;;;;;22.62;95.99;100717.70;742711;1154;116045;-89
2022/06/29 07:17:43;;;;;;;7.13;4.40;;;;;;;22.63;95.19;100708.63;742599;1153;115577;-87
2022/06/29 07:32:46;;;;;;;8.65;4.95;;;;;;;22.92;96.52;100711.92;743217;1155;115741;-88
2022/06/29 07:47:49;;;;;;;10.90;6.17;;;;;;;23.55;95.86;100692.69;742623;1153;114894;-80
2022/06/29 08:02:51;;;;;;;5.80;3.73;;;;;;;24.19;93.48;100678.60;744548;1153;114437;-77
2022/06/29 08:17:54;;;;;;;7.35;3.65;;;;;;;24.65;91.89;100679.34;740123;1155;115650;-80
2022/06/29 08:32:56;;;;;;;7.78;3.78;;;;;;;24.96;89.83;100667.71;740537;1153;115222;-71
2022/06/29 08:47:59;;;;;;;7.55;3.65;;;;;;;24.67;86.16;100688.81;740577;1155;114302;-75
2022/06/29 09:03:04;;;;;;;4.90;3.73;;;;;;;24.60;86.45;100693.39;740708;1154;115860;-76
2022/06/29 09:18:23;;;;;;;6.60;4.03;;;;;;;24.97;84.79;100690.83;741308;1155;115094;-76
2022/06/29 09:33:28;;;;;;;4.63;3.73;;;;;;;24.45;85.96;100682.16;740202;1153;114358;-76
2022/06/29 09:48:33;;;;;;;3.77;3.43;;;;;;;25.08;85.19;100694.63;740841;1155;114874;-76
2022/06/29 10:03:37;;;;;;;5.75;5.10;;;;;;;25.23;84.01;100694.27;740549;1155;114337;-75
2022/06/29 10:18:59;;;;;;;6.48;4.50;;;;;;;25.54;83.50;100673.73;740706;1155;115428;-80
2022/06/29 10:34:34;;;;;;;3.85;3.43;;;;;;;25.91;82.13;100684.41;740615;1153;114220;-77
2022/06/29 10:49:36;;;;;;;5.10;3.60;;;;;;;26.19;81.31;100669.58;740606;1154;114284;-78
2022/06/29 11:04:41;;;;;;;5.33;4.00;;;;;;;26.14;80.87;100666.75;741384;1153;114240;-72
2022/06/29 11:19:43;;;;;;;5.55;3.63;;;;;;;25.75;79.99;100664.38;740527;1153;115088;-69
2022/06/29 11:34:46;;;;;;;4.30;3.58;;;;;;;26.65;80.75;100670.70;741438;1155;115909;-69
2022/06/29 11:49:48;;;;;;;6.13;3.37;;;;;;;27.41;78.15;100653.81;740021;1155;115527;-70
2022/06/29 12:04:51;;;;;;;8.05;3.48;;;;;;;27.87;77.69;100646.63;739816;1155;115970;-70
2022/06/29 12:19:54;;;;;;;5.00;3.53;;;;;;;29.10;75.32;100625.36;740378;1155;114766;-70
2022/06/29 12:34:56;;;;;;;4.70;3.98;;;;;;;28.62;73.02;100619.54;740775;1153;114764;-70
2022/06/29 12:50:01;;;;;;;4.80;3.05;;;;;;;30.02;71.79;100578.78;740431;1155;115755;-70
2022/06/29 13:05:04;;;;;;;3.65;2.90;;;;;;;29.97;69.10;100559.81;740323;1153;115746;-70
2022/06/29 13:20:09;;;;;;;7.45;3.88;;;;;;;29.09;70.41;100549.98;740283;1153;115254;-70
2022/06/29 13:35:12;;;;;;;5.28;3.35;;;;;;;28.75;70.40;100550.94;740263;1155;114892;-69
2022/06/29 13:50:15;;;;;;;6.63;3.35;;;;;;;28.44;70.88;100541.58;740344;1153;115212;-70
2022/06/29 14:05:18;;;;;;;5.85;5.15;;;;;;;29.96;69.37;100567.13;740117;1154;115609;-70
2022/06/29 14:20:21;;;;;;;4.48;3.53;;;;;;;30.91;68.47;100567.43;740596;1155;115383;-70
2022/06/29 14:35:24;;;;;;;5.77;3.20;;;;;;;30.94;66.94;100565.02;740688;1155;115458;-71
2022/06/29 14:50:26;;;;;;;4.60;3.60;;;;;;;29.84;67.88;100588.89;742076;1155;115203;-70
2022/06/29 15:05:29;;;;;;;4.75;4.00;;;;;;;29.78;68.09;100553.96;742734;1153;114787;-70
2022/06/29 15:20:31;;;;;;;6.17;3.80;;;;;;;29.82;69.56;100552.37;741081;1153;114334;-70
2022/06/29 15:50:54;;;;;;;3.75;3.45;;;;;;;29.50;69.89;100516.14;740302;1155;115141;-71
2022/06/29 16:05:57;;;;;;;12.07;8.70;;;;;;;29.28;68.94;100502.69;740210;1154;116015;-71
2022/06/29 16:20:59;;;;;;;6.10;3.83;;;;;;;29.20;69.11;100490.42;741047;1154;114431;-70
2022/06/29 16:36:02;;;;;;;8.83;6.50;;;;;;;28.98;70.06;100487.79;741259;1153;115626;-71
2022/06/29 16:51:05;;;;;;;7.85;4.65;;;;;;;28.74;69.53;100487.23;741108;1153;115248;-72
2022/06/29 17:06:08;;;;;;;6.20;4.40;;;;;;;28.82;71.05;100461.68;742198;1154;115964;-73
2022/06/29 17:21:10;;;;;;;10.20;7.47;;;;;;;28.10;71.60;100444.55;741257;1155;115187;-72
2022/06/29 17:36:16;;;;;;;5.85;4.80;;;;;;;27.68;72.85;100416.17;740956;1153;115782;-72
2022/06/29 17:51:19;;;;;;;6.53;5.20;;;;;;;27.24;74.75;100416.80;741236;1155;114363;-72
2022/06/29 18:06:22;;;;;;;8.90;5.00;;;;;;;26.71;75.47;100398.08;740357;1155;114850;-73
2022/06/29 18:21:25;;;;;;;8.35;5.43;;;;;;;25.80;77.53;100425.41;740809;1153;115122;-76
2022/06/29 18:36:29;;;;;;;6.68;4.70;;;;;;;25.50;78.94;100474.64;740821;1154;114902;-77
2022/06/29 18:51:35;;;;;;;9.45;5.93;;;;;;;25.02;81.14;100457.53;741828;1154;114283;-77
2022/06/29 19:06:38;;;;;;;11.73;7.48;;;;;;;24.48;83.71;100483.30;741265;1155;114341;-76
2022/06/29 19:21:42;;;;;;;11.80;9.15;;;;;;;24.21;85.11;100492.44;741430;1155;114414;-76
2022/06/29 19:36:44;;;;;;;9.58;6.43;;;;;;;23.68;87.05;100479.47;741328;1155;115188;-77
2022/06/29 19:51:47;;;;;;;8.28;5.98;;;;;;;23.48;87.97;100484.94;741168;1153;114383;-77
2022/06/29 20:06:50;;;;;;;16.05;10.53;;;;;;;23.27;88.92;100481.58;740899;1155;114379;-76
2022/06/29 20:21:52;;;;;;;13.70;7.77;;;;;;;22.68;90.68;100502.16;741692;1153;114861;-78
2022/06/29 20:36:55;;;;;;;12.33;9.13;;;;;;;22.49;92.63;100453.05;741614;1155;114917;-78
2022/06/29 20:51:58;;;;;;;20.00;10.50;;;;;;;22.24;93.90;100454.53;740407;1155;116085;-79
2022/06/29 21:07:02;;;;;;;14.67;9.80;;;;;;;22.11;94.96;100462.56;740304;1154;114700;-79
2022/06/29 21:22:04;;;;;;;18.40;10.50;;;;;;;21.76;95.84;100474.29;740094;1153;115338;-79
2022/06/29 21:37:07;;;;;;;14.30;9.85;;;;;;;21.66;95.76;100479.20;740272;1155;116149;-79
2022/06/29 21:52:09;;;;;;;18.93;10.90;;;;;;;21.47;97.12;100491.44;740921;1153;115104;-78
2022/06/29 22:07:11;;;;;;;14.88;9.60;;;;;;;21.37;98.82;100491.84;740524;1155;115336;-77
2022/06/29 22:22:13;;;;;;;20.10;13.35;;;;;;;21.20;100.00;100458.56;740281;1153;115444;-78
2022/06/29 22:37:15;;;;;;;18.25;10.95;;;;;;;21.23;100.00;100464.30;740445;1155;114804;-78
2022/06/29 22:52:18;;;;;;;17.70;12.48;;;;;;;20.86;100.00;100474.42;740137;1153;114873;-78
2022/06/29 23:07:40;;;;;;;27.67;15.63;;;;;;;20.65;100.00;100467.33;740380;1155;116261;-78
2022/06/29 23:22:42;;;;;;;16.60;10.90;;;;;;;20.48;100.00;100444.70;740351;1153;116384;-78
2022/06/29 23:37:45;;;;;;;15.28;11.40;;;;;;;20.54;100.00;100426.08;740333;1155;115132;-78
2022/06/29 23:52:47;;;;;;;34.18;16.33;;;;;;;20.24;100.00;100442.30;740382;1154;116436;-78
